Time;durP1;ratioP1;P1;durP2;ratioP2;P2;SDS_P1;SDS_P2;PMS_P1;PMS_P2;Temp;Humidity;BMP_temperature;BMP_pressure;BME280_temperature;BME280_humidity;BME280_pressure;Samples;Min_cycle;Max_cycle;Signal;HPM_P1;HPM_P2
2023/05/04 05:57:08;;;;;;;3.38;2.50;;;21.30;49.50;;;;;;5853656;23;20019;-56
2023/05/04 05:59:34;;;;;;;3.50;2.78;;;21.10;49.70;;;;;;4873577;29;20024;-58
2023/05/04 06:01:59;;;;;;;3.53;2.95;;;20.80;50.00;;;;;;4879647;29;20060;-55
2023/05/04 06:04:25;;;;;;;3.35;2.60;;;20.70;50.40;;;;;;4888192;29;20112;-51
2023/05/04 06:06:51;;;;;;;4.30;2.47;;;20.60;50.70;;;;;;4884913;29;20033;-51
2023/05/04 06:09:16;;;;;;;3.85;2.55;;;20.60;50.60;;;;;;4888572;29;20064;-52
2023/05/04 06:11:42;;;;;;;5.07;2.65;;;20.60;50.90;;;;;;4888594;29;20092;-53
2023/05/04 06:14:08;;;;;;;3.10;2.60;;;20.60;51.00;;;;;;4890947;29;20517;-46
2023/05/04 06:16:33;;;;;;;3.85;2.55;;;20.60;50.80;;;;;;4885224;29;20043;-50
2023/05/04 06:18:59;;;;;;;5.30;3.10;;;20.60;51.10;;;;;;4890301;29;20699;-46
2023/05/04 06:21:24;;;;;;;3.65;3.13;;;20.60;51.10;;;;;;4883395;29;21060;-51
2023/05/04 06:23:50;;;;;;;4.30;2.97;;;20.60;50.70;;;;;;4889283;29;20036;-57
2023/05/04 06:26:16;;;;;;;4.22;3.10;;;20.50;51.10;;;;;;4889583;29;20032;-57
2023/05/04 06:28:41;;;;;;;3.67;2.95;;;20.50;51.40;;;;;;4889340;29;20657;-62
2023/05/04 06:31:07;;;;;;;4.95;2.92;;;20.40;51.40;;;;;;4889522;29;20064;-65
2023/05/04 06:33:33;;;;;;;3.17;2.55;;;20.40;51.40;;;;;;4886801;29;20032;-54
2023/05/04 06:35:59;;;;;;;2.92;2.58;;;20.40;51.50;;;;;;4876136;29;20040;-55
2023/05/04 06:38:24;;;;;;;3.83;2.53;;;20.30;51.80;;;;;;4874835;29;20052;-53
2023/05/04 06:40:50;;;;;;;4.70;2.88;;;20.30;51.90;;;;;;4874377;29;20044;-48
2023/05/04 06:43:16;;;;;;;4.47;2.67;;;20.30;52.00;;;;;;4884315;29;20117;-57
2023/05/04 06:45:42;;;;;;;3.10;2.80;;;20.30;52.10;;;;;;4876795;29;20036;-57
2023/05/04 06:48:07;;;;;;;4.60;2.97;;;20.30;52.20;;;;;;4922683;23;20080;-91
2023/05/04 06:50:34;;;;;;;4.25;2.90;;;20.30;51.80;;;;;;4927979;29;20047;-88
2023/05/04 06:53:08;;;;;;;4.53;2.85;;;20.30;51.70;;;;;;4924025;29;20028;-88
2023/05/04 06:55:34;;;;;;;4.05;2.67;;;20.20;51.90;;;;;;4925660;29;20194;-88
2023/05/04 06:58:00;;;;;;;2.67;2.42;;;20.10;52.00;;;;;;4916663;23;20060;-53
2023/05/04 07:00:26;;;;;;;4.05;2.70;;;20.10;52.40;;;;;;4886904;29;20517;-48
2023/05/04 07:02:52;;;;;;;3.92;2.45;;;20.10;52.70;;;;;;4901266;29;20036;-55
2023/05/04 07:05:22;;;;;;;3.03;2.47;;;20.10;52.90;;;;;;4900279;29;20043;-46
2023/05/04 07:07:48;;;;;;;2.88;2.45;;;20.00;52.80;;;;;;4898296;29;20750;-55
2023/05/04 07:10:14;;;;;;;4.63;2.70;;;20.10;52.80;;;;;;4898847;29;20046;-47
2023/05/04 07:12:40;;;;;;;4.72;3.00;;;20.00;52.90;;;;;;4896329;29;20039;-61
2023/05/04 07:15:10;;;;;;;3.95;2.55;;;20.00;52.80;;;;;;4903507;29;20147;-58
2023/05/04 07:17:39;;;;;;;4.45;2.90;;;20.00;53.00;;;;;;4902354;29;20130;-58
2023/05/04 07:20:05;;;;;;;2.75;2.42;;;20.00;52.80;;;;;;4904995;29;20067;-61
2023/05/04 07:22:31;;;;;;;6.13;2.80;;;20.00;52.90;;;;;;4902792;29;20024;-58
2023/05/04 07:24:57;;;;;;;3.53;2.55;;;20.00;53.10;;;;;;4900664;29;20036;-60
2023/05/04 07:27:23;;;;;;;4.13;2.53;;;20.00;53.00;;;;;;4902080;29;20028;-59
2023/05/04 07:29:51;;;;;;;4.28;2.70;;;20.00;52.90;;;;;;4903624;29;20142;-61
2023/05/04 07:32:17;;;;;;;3.80;2.75;;;20.00;52.80;;;;;;4900848;29;21037;-59
2023/05/04 07:34:44;;;;;;;4.65;2.78;;;20.00;52.70;;;;;;4900710;29;20048;-59
2023/05/04 07:37:10;;;;;;;4.80;2.95;;;20.00;53.00;;;;;;4898061;29;20028;-51
2023/05/04 07:39:35;;;;;;;5.40;2.40;;;20.00;52.20;;;;;;4892431;29;20110;-55
2023/05/04 07:42:02;;;;;;;4.22;2.70;;;20.00;52.40;;;;;;4893310;29;20040;-56
2023/05/04 07:44:28;;;;;;;3.95;2.47;;;20.10;52.40;;;;;;4898675;29;20028;-56
2023/05/04 07:46:54;;;;;;;3.20;2.53;;;20.00;52.10;;;;;;4894853;29;20036;-56
2023/05/04 07:49:20;;;;;;;2.53;2.30;;;20.00;51.90;;;;;;4896329;29;20044;-56
2023/05/04 07:51:45;;;;;;;2.97;2.20;;;20.10;51.80;;;;;;4902060;29;20036;-55
2023/05/04 07:54:11;;;;;;;2.63;2.15;;;20.10;51.50;;;;;;4900845;29;20099;-52
2023/05/04 07:56:37;;;;;;;3.33;2.22;;;20.10;51.40;;;;;;4893480;29;20127;-49
2023/05/04 07:59:02;;;;;;;2.20;2.00;;;20.10;50.80;;;;;;4891331;29;20930;-56
2023/05/04 08:01:28;;;;;;;2.63;1.80;;;20.10;50.20;;;;;;4872514;29;20406;-56
2023/05/04 08:03:54;;;;;;;3.30;1.85;;;20.10;49.80;;;;;;4898490;29;20055;-56
2023/05/04 08:06:20;;;;;;;2.05;1.83;;;20.10;49.50;;;;;;4892211;29;20038;-58
2023/05/04 08:08:48;;;;;;;1.92;1.83;;;20.10;49.30;;;;;;4891047;29;20040;-57
2023/05/04 08:11:14;;;;;;;3.20;2.03;;;20.10;49.00;;;;;;4898219;29;20151;-57
2023/05/04 08:13:40;;;;;;;2.60;2.03;;;20.10;49.00;;;;;;4903376;29;20089;-53
2023/05/04 08:16:08;;;;;;;3.28;2.20;;;20.10;49.00;;;;;;4891267;29;20044;-57
2023/05/04 08:18:33;;;;;;;6.05;2.10;;;20.10;48.90;;;;;;4902697;29;20039;-58
2023/05/04 08:20:59;;;;;;;2.20;2.00;;;20.10;49.10;;;;;;4887798;29;20032;-57
2023/05/04 08:23:24;;;;;;;3.25;2.25;;;20.20;49.20;;;;;;4898432;29;20777;-56
2023/05/04 08:25:51;;;;;;;2.40;2.08;;;20.20;49.20;;;;;;4887166;29;20060;-57
2023/05/04 08:28:17;;;;;;;2.83;2.10;;;20.30;49.10;;;;;;4888315;29;20036;-56
2023/05/04 08:30:42;;;;;;;4.00;2.47;;;20.30;48.90;;;;;;4891231;29;20396;-58
2023/05/04 08:33:08;;;;;;;2.33;2.00;;;20.30;48.60;;;;;;4899223;29;20044;-48
2023/05/04 08:35:34;;;;;;;1.70;1.60;;;20.30;48.40;;;;;;4881583;29;20032;-56
2023/05/04 08:38:00;;;;;;;2.65;2.10;;;20.40;48.50;;;;;;4874257;29;20058;-53
2023/05/04 08:40:26;;;;;;;3.65;1.90;;;20.40;48.50;;;;;;4886319;29;20099;-54
2023/05/04 08:42:52;;;;;;;1.90;1.67;;;20.40;48.40;;;;;;4891760;29;20040;-55
2023/05/04 08:45:18;;;;;;;1.95;1.83;;;20.40;48.40;;;;;;4890109;29;20044;-58
2023/05/04 08:47:43;;;;;;;1.80;1.70;;;20.40;48.10;;;;;;4886105;29;21445;-58
2023/05/04 08:50:10;;;;;;;1.60;1.50;;;20.40;47.80;;;;;;4889052;29;20040;-58
2023/05/04 08:52:37;;;;;;;2.65;1.60;;;20.40;47.70;;;;;;4883760;29;20045;-58
2023/05/04 08:55:04;;;;;;;2.15;1.70;;;20.40;47.70;;;;;;4888644;29;20036;-55
2023/05/04 08:57:32;;;;;;;2.58;1.67;;;20.40;47.40;;;;;;4888701;29;20059;-56
2023/05/04 08:59:59;;;;;;;2.10;1.88;;;20.40;47.30;;;;;;4868706;29;20141;-51
2023/05/04 09:02:25;;;;;;;1.88;1.52;;;20.50;47.40;;;;;;4882152;29;20059;-54
2023/05/04 09:04:52;;;;;;;1.95;1.70;;;20.50;47.20;;;;;;4893565;29;20108;-57
2023/05/04 09:07:19;;;;;;;1.70;1.60;;;20.60;47.20;;;;;;4883510;29;20040;-51
2023/05/04 09:09:46;;;;;;;1.90;1.52;;;20.60;47.30;;;;;;4878338;29;20215;-52
2023/05/04 09:12:12;;;;;;;1.60;1.50;;;20.70;47.60;;;;;;4885887;29;20031;-54
2023/05/04 09:14:40;;;;;;;3.15;2.30;;;20.70;47.40;;;;;;4887755;29;20036;-51
2023/05/04 09:17:13;;;;;;;1.90;1.75;;;20.70;47.00;;;;;;4889061;29;20044;-50
2023/05/04 09:19:42;;;;;;;2.00;1.80;;;20.80;46.90;;;;;;4892392;29;20048;-54
2023/05/04 09:22:18;;;;;;;1.55;1.45;;;20.80;46.60;;;;;;4886040;29;20075;-57
2023/05/04 09:24:45;;;;;;;2.13;1.90;;;20.90;46.60;;;;;;4882983;29;20036;-56
2023/05/04 09:27:12;;;;;;;2.10;1.90;;;20.90;46.60;;;;;;4885052;29;20028;-56
2023/05/04 09:29:39;;;;;;;1.70;1.60;;;20.90;46.70;;;;;;4883669;29;20040;-55
2023/05/04 09:32:11;;;;;;;2.78;2.00;;;21.00;46.90;;;;;;4883664;29;21295;-56
2023/05/04 09:34:45;;;;;;;2.50;1.83;;;21.00;46.80;;;;;;4883870;29;20040;-56
2023/05/04 09:37:11;;;;;;;2.47;1.88;;;20.90;46.90;;;;;;4894885;29;20036;-54
2023/05/04 09:39:36;;;;;;;2.95;1.83;;;20.90;46.90;;;;;;4883623;29;20124;-58
2023/05/04 09:42:03;;;;;;;3.53;1.85;;;20.90;46.70;;;;;;4894470;29;20044;-59
2023/05/04 09:44:29;;;;;;;1.70;1.60;;;20.90;46.70;;;;;;4899539;29;20059;-59
2023/05/04 09:46:59;;;;;;;2.25;1.73;;;20.90;46.80;;;;;;4902846;29;20024;-59
2023/05/04 09:49:32;;;;;;;4.35;1.90;;;20.80;46.80;;;;;;4899416;29;20036;-57
2023/05/04 09:52:02;;;;;;;1.85;1.75;;;20.80;46.90;;;;;;4892164;29;20028;-59
2023/05/04 09:54:34;;;;;;;2.63;1.90;;;20.90;47.00;;;;;;4897580;29;20028;-58
2023/05/04 09:57:06;;;;;;;2.30;1.98;;;20.90;47.10;;;;;;4883568;29;20028;-58
2023/05/04 09:59:32;;;;;;;1.90;1.70;;;21.00;47.10;;;;;;4898826;29;20036;-55
2023/05/04 10:01:58;;;;;;;1.83;1.70;;;21.00;47.10;;;;;;4883946;29;20096;-56
2023/05/04 10:04:24;;;;;;;2.42;2.00;;;21.00;47.10;;;;;;4885836;29;20072;-55
2023/05/04 10:06:51;;;;;;;2.45;1.85;;;21.00;47.20;;;;;;4891376;29;20686;-57
2023/05/04 10:09:18;;;;;;;2.00;1.80;;;21.10;47.30;;;;;;4893108;29;20453;-55
2023/05/04 10:11:44;;;;;;;2.67;1.85;;;21.10;47.30;;;;;;4881072;29;20040;-55
2023/05/04 10:14:09;;;;;;;2.85;1.70;;;21.10;47.30;;;;;;4896447;29;20498;-56
2023/05/04 10:17:14;;;;;;;3.47;2.25;;;21.10;47.30;;;;;;4894589;29;20330;-55
2023/05/04 10:19:42;;;;;;;2.58;2.08;;;21.10;47.20;;;;;;4897049;29;20043;-56
2023/05/04 10:22:23;;;;;;;2.00;1.60;;;21.20;46.70;;;;;;4895943;29;20056;-55
2023/05/04 10:25:03;;;;;;;;;;;21.10;46.30;;;;;;4885995;29;20040;-57
2023/05/04 10:28:02;;;;;;;3.20;1.90;;;21.10;46.00;;;;;;4893556;29;20675;-57
2023/05/04 10:30:28;;;;;;;3.22;2.05;;;21.10;46.70;;;;;;4895808;29;20036;-57
2023/05/04 10:32:58;;;;;;;2.08;1.52;;;21.10;46.00;;;;;;4898186;29;20894;-56
2023/05/04 10:35:24;;;;;;;3.17;1.83;;;21.10;46.00;;;;;;4882590;29;20094;-55
2023/05/04 10:37:53;;;;;;;3.10;2.20;;;21.00;45.90;;;;;;4883408;29;20151;-55
2023/05/04 10:40:32;;;;;;;2.10;1.85;;;21.00;45.90;;;;;;4877605;29;20115;-56
2023/05/04 10:42:58;;;;;;;2.15;1.90;;;21.00;45.80;;;;;;4888799;29;20114;-57
2023/05/04 10:45:37;;;;;;;4.15;1.88;;;21.00;45.70;;;;;;4888771;29;20044;-55
2023/05/04 10:48:03;;;;;;;2.15;2.00;;;21.00;45.50;;;;;;4891687;29;20123;-57
2023/05/04 10:50:46;;;;;;;2.53;1.60;;;21.00;45.60;;;;;;4886542;29;20159;-55
2023/05/04 10:55:47;;;;;;;2.22;1.80;;;21.20;45.40;;;;;;5149727;23;20849;-57
2023/05/04 10:58:17;;;;;;;3.33;1.88;;;21.20;45.30;;;;;;4891616;29;20035;-55
2023/05/04 11:00:46;;;;;;;2.10;1.90;;;21.20;45.20;;;;;;4909364;29;20032;-58
2023/05/04 11:03:12;;;;;;;2.65;1.92;;;21.20;45.40;;;;;;4901886;29;20040;-56
2023/05/04 11:05:45;;;;;;;2.33;1.73;;;21.30;45.60;;;;;;4900258;29;20135;-57
2023/05/04 11:08:21;;;;;;;2.25;1.65;;;21.30;45.40;;;;;;4909268;29;20650;-60
2023/05/04 11:10:59;;;;;;;3.00;2.13;;;21.30;45.40;;;;;;4910160;29;20035;-58
2023/05/04 11:13:25;;;;;;;2.75;1.75;;;21.20;45.30;;;;;;4899643;29;20035;-56
2023/05/04 11:15:51;;;;;;;3.33;1.90;;;21.20;45.20;;;;;;4918629;29;20513;-56
2023/05/04 11:18:30;;;;;;;3.63;1.85;;;21.20;45.40;;;;;;4916043;29;20040;-58
2023/05/04 11:20:57;;;;;;;3.13;2.05;;;21.20;45.50;;;;;;4915571;29;20478;-56
2023/05/04 11:23:23;;;;;;;1.58;1.48;;;21.10;45.40;;;;;;4901534;29;20043;-57
2023/05/04 11:25:49;;;;;;;2.53;1.77;;;21.10;45.30;;;;;;4909630;29;20032;-58
2023/05/04 11:28:15;;;;;;;3.83;2.08;;;21.00;45.30;;;;;;4907677;29;20043;-57
2023/05/04 11:30:42;;;;;;;4.25;2.35;;;20.90;45.30;;;;;;4904279;29;20032;-55
2023/05/04 11:33:13;;;;;;;2.10;1.90;;;20.90;45.60;;;;;;4893439;28;20110;-56
2023/05/04 11:35:41;;;;;;;4.15;2.05;;;20.90;45.80;;;;;;4899841;29;20427;-55
2023/05/04 11:38:07;;;;;;;3.47;2.53;;;20.90;46.10;;;;;;4897000;29;20047;-58
2023/05/04 11:40:34;;;;;;;3.28;2.22;;;20.90;46.20;;;;;;4913463;29;20058;-57
2023/05/04 11:43:01;;;;;;;2.95;2.33;;;20.90;46.20;;;;;;4912007;29;20028;-56
2023/05/04 11:45:33;;;;;;;1.95;1.77;;;20.90;46.20;;;;;;4911565;29;20055;-56
2023/05/04 11:47:59;;;;;;;1.83;1.73;;;21.00;46.30;;;;;;4911908;29;20039;-55
2023/05/04 11:50:26;;;;;;;2.50;1.92;;;20.90;46.10;;;;;;4905254;29;20039;-54
2023/05/04 11:53:03;;;;;;;2.35;1.83;;;21.00;45.90;;;;;;4911117;29;20032;-57
2023/05/04 11:55:30;;;;;;;1.95;1.77;;;21.00;46.60;;;;;;4891558;29;20052;-57
2023/05/04 11:57:59;;;;;;;2.08;1.67;;;21.00;45.80;;;;;;4908419;29;20038;-58
2023/05/04 12:00:45;;;;;;;1.63;1.50;;;21.00;46.50;;;;;;4904563;29;20036;-58
2023/05/04 12:03:15;;;;;;;3.80;1.80;;;21.10;46.00;;;;;;4903668;29;20401;-59
2023/05/04 12:05:52;;;;;;;1.83;1.63;;;21.10;45.60;;;;;;4907584;29;20036;-58
2023/05/04 12:08:25;;;;;;;2.03;1.60;;;21.20;45.50;;;;;;4910126;29;20083;-56
2023/05/04 12:11:19;;;;;;;2.78;1.92;;;21.20;45.60;;;;;;4903541;29;20198;-57
2023/05/04 12:13:46;;;;;;;2.40;1.85;;;21.20;45.60;;;;;;4906716;29;20636;-55
2023/05/04 12:16:16;;;;;;;2.25;1.48;;;21.30;45.50;;;;;;4915360;29;20079;-56
2023/05/04 12:18:44;;;;;;;2.35;1.75;;;21.20;45.20;;;;;;4907997;29;20052;-58
2023/05/04 12:21:19;;;;;;;1.60;1.50;;;21.20;45.10;;;;;;4908303;29;20469;-55
2023/05/04 12:23:45;;;;;;;1.80;1.70;;;21.20;45.20;;;;;;4907550;29;20038;-57
2023/05/04 12:26:12;;;;;;;2.22;1.70;;;21.20;45.20;;;;;;4898085;29;20113;-57
2023/05/04 12:28:40;;;;;;;1.85;1.42;;;21.30;45.00;;;;;;4905085;29;20036;-56
2023/05/04 12:31:06;;;;;;;1.92;1.80;;;21.30;44.80;;;;;;4895231;29;20047;-57
2023/05/04 12:33:33;;;;;;;2.83;1.60;;;21.20;44.60;;;;;;4890005;29;20124;-59
2023/05/04 12:36:03;;;;;;;2.00;1.80;;;21.20;44.70;;;;;;4884618;29;20032;-55
2023/05/04 12:38:29;;;;;;;2.90;1.88;;;21.20;44.80;;;;;;4892894;29;20151;-58
2023/05/04 12:41:02;;;;;;;2.50;1.65;;;21.20;45.00;;;;;;4894888;29;20065;-57
2023/05/04 12:43:28;;;;;;;2.22;1.70;;;21.20;45.10;;;;;;4892298;29;20039;-57
2023/05/04 12:45:53;;;;;;;1.88;1.55;;;21.10;44.80;;;;;;4897529;29;20028;-58
2023/05/04 12:48:19;;;;;;;1.88;1.65;;;21.10;44.70;;;;;;4892184;29;20096;-58
2023/05/04 12:50:49;;;;;;;1.60;1.50;;;21.00;44.60;;;;;;4891776;29;20032;-55
2023/05/04 12:53:16;;;;;;;2.35;1.88;;;21.00;44.50;;;;;;4890980;29;20639;-56
2023/05/04 12:55:42;;;;;;;1.90;1.70;;;21.00;44.60;;;;;;4893522;29;20055;-57
2023/05/04 12:58:08;;;;;;;2.50;2.00;;;20.90;44.60;;;;;;4895576;29;20750;-57
2023/05/04 13:00:36;;;;;;;2.35;1.60;;;20.90;44.80;;;;;;4877573;29;20118;-55
2023/05/04 13:03:02;;;;;;;1.60;1.50;;;20.90;44.80;;;;;;4876182;29;21430;-57
2023/05/04 13:05:28;;;;;;;1.92;1.75;;;20.80;44.90;;;;;;4887562;29;20175;-57
2023/05/04 13:07:54;;;;;;;2.03;1.83;;;20.80;45.00;;;;;;4882568;29;23474;-55
2023/05/04 13:10:20;;;;;;;3.25;2.00;;;20.80;45.10;;;;;;4892936;29;20039;-56
2023/05/04 13:12:47;;;;;;;2.35;1.58;;;20.80;45.20;;;;;;4888394;29;20036;-57
2023/05/04 13:15:13;;;;;;;2.53;1.95;;;20.80;45.30;;;;;;4889976;29;20050;-55
2023/05/04 13:17:41;;;;;;;2.63;2.20;;;20.80;45.10;;;;;;4886964;29;20062;-56
2023/05/04 13:20:08;;;;;;;2.85;1.75;;;20.80;45.10;;;;;;4898777;29;20043;-55
2023/05/04 13:22:34;;;;;;;2.20;2.00;;;20.80;45.10;;;;;;4888468;29;20036;-55
2023/05/04 13:24:59;;;;;;;2.00;1.67;;;20.80;45.20;;;;;;4883169;29;21079;-57
2023/05/04 13:27:25;;;;;;;2.85;2.00;;;20.80;45.10;;;;;;4895638;29;20044;-59
2023/05/04 13:29:51;;;;;;;1.90;1.52;;;20.80;45.30;;;;;;4897150;29;20070;-58
2023/05/04 13:32:16;;;;;;;1.65;1.55;;;20.80;45.40;;;;;;4892318;29;20406;-57
2023/05/04 13:34:42;;;;;;;1.85;1.75;;;20.80;45.20;;;;;;4894244;29;22091;-56
2023/05/04 13:37:08;;;;;;;2.00;1.80;;;20.80;45.30;;;;;;4892091;29;20042;-60
2023/05/04 13:39:40;;;;;;;1.58;1.48;;;20.80;45.20;;;;;;4897118;29;20434;-56
2023/05/04 13:42:07;;;;;;;2.30;1.75;;;20.90;45.30;;;;;;4907635;29;20104;-61
2023/05/04 13:44:32;;;;;;;1.75;1.65;;;20.90;45.50;;;;;;4903175;29;20082;-55
2023/05/04 13:47:00;;;;;;;1.73;1.60;;;20.90;45.60;;;;;;4906994;29;20040;-56
2023/05/04 13:49:26;;;;;;;2.63;1.60;;;20.90;45.40;;;;;;4905836;29;20074;-59
2023/05/04 13:51:53;;;;;;;1.88;1.67;;;20.80;45.20;;;;;;4906130;29;20035;-56
2023/05/04 13:54:19;;;;;;;2.03;1.77;;;20.80;45.10;;;;;;4891110;29;20046;-58
2023/05/04 13:56:44;;;;;;;1.85;1.38;;;20.80;45.10;;;;;;4896983;29;20031;-56
2023/05/04 13:59:10;;;;;;;2.83;1.67;;;20.80;45.00;;;;;;4889197;29;20039;-58
2023/05/04 14:01:36;;;;;;;2.10;1.67;;;20.80;45.10;;;;;;4901496;29;20130;-58
2023/05/04 14:04:02;;;;;;;1.63;1.52;;;20.80;45.10;;;;;;4911777;29;21630;-56
2023/05/04 14:06:29;;;;;;;1.92;1.63;;;20.80;45.20;;;;;;4892747;29;20028;-54
2023/05/04 14:08:55;;;;;;;2.67;1.60;;;20.80;45.40;;;;;;4897753;29;20131;-57
2023/05/04 14:11:21;;;;;;;3.20;1.90;;;20.70;45.20;;;;;;4895784;29;20138;-58
2023/05/04 14:13:47;;;;;;;2.00;1.80;;;20.80;45.30;;;;;;4889858;29;20028;-58
2023/05/04 14:16:13;;;;;;;1.40;1.25;;;20.80;45.20;;;;;;4894462;29;20028;-57
2023/05/04 14:18:38;;;;;;;1.67;1.58;;;20.80;45.20;;;;;;4904989;29;20043;-56
2023/05/04 14:21:04;;;;;;;2.15;1.40;;;20.80;45.20;;;;;;4901662;29;20099;-57
2023/05/04 14:23:30;;;;;;;1.58;1.48;;;20.80;45.10;;;;;;4897396;29;20040;-58
2023/05/04 14:25:56;;;;;;;2.47;1.23;;;20.90;45.20;;;;;;4897295;29;20039;-59
2023/05/04 14:28:22;;;;;;;2.30;1.73;;;20.90;45.30;;;;;;4893022;29;20039;-57
2023/05/04 14:30:49;;;;;;;2.10;1.50;;;20.90;45.20;;;;;;4891267;29;20115;-56
2023/05/04 14:33:15;;;;;;;2.03;1.33;;;21.00;45.30;;;;;;4890297;29;20035;-57
2023/05/04 14:35:42;;;;;;;2.28;1.80;;;21.00;45.30;;;;;;4894647;29;22726;-56
2023/05/04 14:38:11;;;;;;;3.22;1.80;;;21.00;45.20;;;;;;4889967;29;20036;-56
2023/05/04 14:40:37;;;;;;;2.95;1.92;;;21.00;45.30;;;;;;4904256;29;20406;-57
2023/05/04 14:43:03;;;;;;;2.33;1.80;;;21.00;45.50;;;;;;4899151;29;20028;-57
2023/05/04 14:45:29;;;;;;;1.67;1.50;;;21.10;45.70;;;;;;4902306;29;20085;-55
2023/05/04 14:47:55;;;;;;;2.28;1.75;;;21.10;45.70;;;;;;4898860;29;20086;-58
2023/05/04 14:50:21;;;;;;;2.33;1.73;;;21.00;45.70;;;;;;4905857;29;20515;-57
2023/05/04 14:52:47;;;;;;;2.35;1.75;;;21.10;45.70;;;;;;4882401;29;20054;-57
2023/05/04 14:55:13;;;;;;;2.05;1.80;;;21.00;45.70;;;;;;4892662;29;20522;-58
2023/05/04 14:57:39;;;;;;;2.40;1.95;;;21.10;45.90;;;;;;4893119;29;20091;-58
2023/05/04 15:00:07;;;;;;;2.35;1.83;;;21.00;45.60;;;;;;4879458;29;20055;-59
2023/05/04 15:02:34;;;;;;;2.78;1.98;;;21.00;45.60;;;;;;4889451;29;20478;-59
2023/05/04 15:05:01;;;;;;;2.15;1.40;;;21.10;45.50;;;;;;4888822;29;20040;-58
2023/05/04 15:07:26;;;;;;;1.58;1.40;;;21.10;45.40;;;;;;4894553;29;20036;-59
2023/05/04 15:09:52;;;;;;;1.67;1.58;;;21.10;45.30;;;;;;4899207;29;20233;-57
2023/05/04 15:12:18;;;;;;;1.80;1.60;;;21.10;45.30;;;;;;4891250;29;20035;-57
2023/05/04 15:14:45;;;;;;;1.65;1.30;;;21.10;45.10;;;;;;4900358;29;20047;-55
2023/05/04 15:17:11;;;;;;;1.40;1.30;;;21.20;45.10;;;;;;4881464;29;20035;-58
2023/05/04 15:19:39;;;;;;;2.15;1.58;;;21.20;45.30;;;;;;4894684;29;20383;-58
2023/05/04 15:22:06;;;;;;;1.67;1.58;;;21.20;45.20;;;;;;4907562;29;20692;-60
2023/05/04 15:24:32;;;;;;;2.15;1.80;;;21.10;45.20;;;;;;4897118;29;20082;-61
2023/05/04 15:26:57;;;;;;;1.95;1.42;;;21.20;45.20;;;;;;4900961;29;20075;-57
2023/05/04 15:29:24;;;;;;;1.55;1.45;;;21.10;45.00;;;;;;4913203;29;20449;-59
2023/05/04 15:31:50;;;;;;;1.63;1.52;;;21.10;45.00;;;;;;4911298;29;20056;-59
2023/05/04 15:34:16;;;;;;;2.78;1.30;;;21.10;45.00;;;;;;4908667;29;20028;-58
2023/05/04 15:36:41;;;;;;;2.45;1.50;;;21.00;44.80;;;;;;4906138;29;20059;-57
2023/05/04 15:39:08;;;;;;;1.55;1.45;;;21.00;44.80;;;;;;4908286;29;20040;-59
2023/05/04 15:41:34;;;;;;;1.98;1.80;;;21.00;44.90;;;;;;4909544;29;20568;-59
2023/05/04 15:44:00;;;;;;;1.92;1.60;;;21.00;45.10;;;;;;4913761;29;20024;-59
2023/05/04 15:46:27;;;;;;;1.98;1.77;;;20.90;45.10;;;;;;4908582;29;20046;-59
2023/05/04 15:48:53;;;;;;;2.20;1.55;;;20.90;45.10;;;;;;4909983;29;20150;-59
2023/05/04 15:51:19;;;;;;;1.48;1.38;;;20.90;45.10;;;;;;4917438;29;20035;-57
2023/05/04 15:53:45;;;;;;;1.80;1.70;;;20.90;45.10;;;;;;4912905;29;20075;-57
2023/05/04 15:56:12;;;;;;;3.05;1.70;;;20.80;45.30;;;;;;4905107;29;20064;-58
2023/05/04 15:58:38;;;;;;;2.30;1.65;;;20.80;45.60;;;;;;4911190;29;20036;-58
2023/05/04 16:01:06;;;;;;;1.58;1.48;;;20.80;45.70;;;;;;4913191;29;20036;-59
2023/05/04 16:03:33;;;;;;;2.78;1.55;;;20.70;45.80;;;;;;4914230;29;20040;-57
2023/05/04 16:06:00;;;;;;;2.67;1.90;;;20.70;45.70;;;;;;4918906;29;20035;-59
2023/05/04 16:08:26;;;;;;;2.63;1.80;;;20.70;45.70;;;;;;4918297;29;20035;-58
2023/05/04 16:10:52;;;;;;;1.88;1.67;;;20.60;45.80;;;;;;4918859;29;20055;-57
2023/05/04 16:13:19;;;;;;;2.72;2.00;;;20.60;45.80;;;;;;4922296;29;20027;-59
2023/05/04 16:15:49;;;;;;;2.67;2.05;;;20.60;45.90;;;;;;4917919;29;20039;-57
2023/05/04 16:18:16;;;;;;;1.95;1.85;;;20.60;46.10;;;;;;4914201;29;20144;-57
2023/05/04 16:20:41;;;;;;;3.50;1.90;;;20.50;46.00;;;;;;4912466;29;20159;-58
2023/05/04 16:23:07;;;;;;;2.88;2.00;;;20.50;46.00;;;;;;4921008;29;20032;-58
2023/05/04 16:25:33;;;;;;;1.90;1.70;;;20.40;45.90;;;;;;4913105;29;20055;-59
2023/05/04 16:27:58;;;;;;;3.28;1.88;;;20.40;46.00;;;;;;4916722;29;20035;-57
2023/05/04 16:30:30;;;;;;;3.00;1.75;;;20.40;46.10;;;;;;4914596;29;20062;-59
2023/05/04 16:32:57;;;;;;;2.42;1.70;;;20.40;46.20;;;;;;4920705;29;20032;-57
2023/05/04 16:35:22;;;;;;;2.45;1.90;;;20.30;46.20;;;;;;4908328;29;20035;-57
2023/05/04 16:37:48;;;;;;;2.33;1.90;;;20.30;46.30;;;;;;4916620;29;20027;-57
2023/05/04 16:40:14;;;;;;;2.20;1.70;;;20.20;46.40;;;;;;4922852;29;20146;-57
2023/05/04 16:42:43;;;;;;;2.95;1.90;;;20.20;46.50;;;;;;4918301;29;20039;-57
2023/05/04 16:45:10;;;;;;;2.53;1.90;;;20.10;46.40;;;;;;4918084;29;20044;-57
2023/05/04 16:47:41;;;;;;;2.85;1.98;;;20.10;46.50;;;;;;4911323;29;20032;-57
2023/05/04 16:50:11;;;;;;;5.13;2.67;;;20.10;46.50;;;;;;4921924;29;20059;-56
2023/05/04 16:52:37;;;;;;;3.13;2.30;;;20.00;46.40;;;;;;4908237;29;20317;-58
2023/05/04 16:55:03;;;;;;;2.30;1.80;;;20.00;46.50;;;;;;4896081;29;22426;-58
2023/05/04 16:57:29;;;;;;;3.85;1.88;;;19.90;46.40;;;;;;4914854;29;20047;-60
2023/05/04 16:59:55;;;;;;;2.80;2.08;;;19.90;46.40;;;;;;4917434;29;20028;-58
2023/05/04 17:02:20;;;;;;;2.15;1.88;;;19.80;46.50;;;;;;4919719;29;20406;-59
2023/05/04 17:04:46;;;;;;;3.17;2.13;;;19.80;46.70;;;;;;4921885;29;20039;-61
2023/05/04 17:07:12;;;;;;;3.28;2.05;;;19.80;46.70;;;;;;4924989;29;20407;-58
2023/05/04 17:09:38;;;;;;;2.28;1.77;;;19.80;46.80;;;;;;4922474;29;20095;-58
2023/05/04 17:12:04;;;;;;;3.00;2.53;;;19.70;46.80;;;;;;4918286;29;20032;-60
2023/05/04 17:14:29;;;;;;;4.43;2.45;;;19.70;46.80;;;;;;4916586;29;20043;-58
2023/05/04 17:16:55;;;;;;;4.13;2.40;;;19.60;46.80;;;;;;4921705;29;20024;-58
2023/05/04 17:19:21;;;;;;;2.60;2.20;;;19.60;46.90;;;;;;4916669;29;20679;-59
2023/05/04 17:21:46;;;;;;;3.05;2.38;;;19.60;47.10;;;;;;4927965;28;20471;-57
2023/05/04 17:24:12;;;;;;;3.67;2.20;;;19.50;47.20;;;;;;4927494;29;20032;-59
2023/05/04 17:26:38;;;;;;;5.35;2.53;;;19.50;47.40;;;;;;4917066;29;20042;-62
2023/05/04 17:29:05;;;;;;;4.13;2.45;;;19.40;47.40;;;;;;4920505;29;20087;-56
2023/05/04 17:31:31;;;;;;;3.95;2.50;;;19.40;47.70;;;;;;4927047;29;20066;-60
2023/05/04 17:33:56;;;;;;;3.63;2.58;;;19.40;47.70;;;;;;4922046;29;20462;-60
2023/05/04 17:36:22;;;;;;;2.55;2.33;;;19.40;47.60;;;;;;4919089;29;20042;-59
2023/05/04 17:38:48;;;;;;;2.88;2.38;;;19.30;47.60;;;;;;4922189;29;20048;-58
2023/05/04 17:41:13;;;;;;;3.05;2.30;;;19.30;47.60;;;;;;4927085;29;20039;-50
2023/05/04 17:43:39;;;;;;;3.90;2.70;;;19.30;47.70;;;;;;4922475;29;20039;-52
2023/05/04 17:46:05;;;;;;;4.20;2.30;;;19.20;47.70;;;;;;4921629;29;20107;-56
2023/05/04 17:48:30;;;;;;;3.00;2.65;;;19.20;47.80;;;;;;4918981;29;20036;-56
2023/05/04 17:50:57;;;;;;;3.28;2.38;;;19.20;48.20;;;;;;4925791;29;20102;-56
2023/05/04 17:53:22;;;;;;;3.20;2.50;;;19.20;48.20;;;;;;4920231;29;20034;-53
2023/05/04 17:55:48;;;;;;;5.00;2.97;;;19.10;48.00;;;;;;4919624;29;20156;-57
2023/05/04 17:58:15;;;;;;;3.35;2.60;;;19.10;48.20;;;;;;4931441;29;20438;-57
2023/05/04 18:00:40;;;;;;;4.63;3.00;;;19.10;48.20;;;;;;4918529;29;20028;-58
2023/05/04 18:03:06;;;;;;;3.22;2.55;;;19.00;48.20;;;;;;4918783;29;20810;-57
2023/05/04 18:05:31;;;;;;;4.20;2.83;;;19.00;48.20;;;;;;4912177;29;20032;-56
2023/05/04 18:07:57;;;;;;;3.53;2.70;;;19.00;48.20;;;;;;4930064;29;20028;-57
2023/05/04 18:10:23;;;;;;;3.10;2.30;;;19.00;48.20;;;;;;4926264;29;20059;-57
2023/05/04 18:12:49;;;;;;;3.08;2.30;;;18.90;48.20;;;;;;4927767;29;20467;-56
2023/05/04 18:15:16;;;;;;;3.63;2.50;;;18.90;48.10;;;;;;4927692;29;20024;-55
2023/05/04 18:17:42;;;;;;;3.35;2.60;;;18.90;48.20;;;;;;4925099;29;20118;-58
2023/05/04 18:20:09;;;;;;;4.80;2.88;;;18.90;48.20;;;;;;4927635;29;20151;-58
2023/05/04 18:22:35;;;;;;;3.22;2.30;;;18.90;48.30;;;;;;4931628;29;20051;-58
2023/05/04 18:25:02;;;;;;;3.50;2.67;;;18.90;48.50;;;;;;4933292;29;20484;-58
2023/05/04 18:27:32;;;;;;;5.80;2.58;;;18.90;48.50;;;;;;4925621;29;20028;-56
2023/05/04 18:29:58;;;;;;;2.72;2.00;;;18.80;48.40;;;;;;4921379;29;20122;-56
2023/05/04 18:32:24;;;;;;;3.33;2.13;;;18.80;48.50;;;;;;4932035;29;20036;-57
2023/05/04 18:34:53;;;;;;;4.15;2.45;;;18.80;48.60;;;;;;4930891;29;20118;-57
2023/05/04 18:37:19;;;;;;;3.30;2.45;;;18.80;48.70;;;;;;4923863;29;20436;-58
2023/05/04 18:39:45;;;;;;;3.25;2.20;;;18.80;48.90;;;;;;4920796;29;20031;-56
2023/05/04 18:42:10;;;;;;;3.72;2.60;;;18.80;48.90;;;;;;4928615;29;20032;-57
2023/05/04 18:44:36;;;;;;;4.22;2.80;;;18.70;48.90;;;;;;4926283;29;20067;-55
2023/05/04 18:47:02;;;;;;;3.55;2.70;;;18.70;49.10;;;;;;4929096;29;20028;-58